createdAt,value
2024-01-06T00:02:25.773Z,4.37
2024-01-06T00:04:53.221Z,4.37
2024-01-06T00:07:20.752Z,5.37
2024-01-06T00:09:48.217Z,3.90
2024-01-06T00:12:16.026Z,3.87
2024-01-06T00:14:46.570Z,4.43
2024-01-06T00:17:14.206Z,4.00
2024-01-06T00:19:41.713Z,4.43
2024-01-06T00:22:09.926Z,3.60
2024-01-06T00:24:37.458Z,4.10
2024-01-06T00:27:05.118Z,4.57
2024-01-06T00:29:33.935Z,3.83
2024-01-06T00:32:01.517Z,4.23
2024-01-06T00:34:29.088Z,4.30
2024-01-06T00:36:56.688Z,5.30
2024-01-06T00:39:24.087Z,3.60
2024-01-06T00:41:52.433Z,4.97
2024-01-06T00:44:19.751Z,4.23
2024-01-06T00:46:47.152Z,4.50
2024-01-06T00:49:14.873Z,4.40
2024-01-06T00:51:42.519Z,3.80
2024-01-06T00:54:10.484Z,4.70
2024-01-06T00:56:37.900Z,4.90
2024-01-06T00:59:06.535Z,4.00
2024-01-06T01:01:35.216Z,4.30
2024-01-06T01:04:06.049Z,4.10
2024-01-06T01:06:33.701Z,5.07
2024-01-06T01:09:02.277Z,4.80
2024-01-06T01:11:29.869Z,4.80
2024-01-06T01:13:57.426Z,4.53
2024-01-06T01:16:24.865Z,5.40
2024-01-06T01:18:52.446Z,4.90
2024-01-06T01:21:19.903Z,4.77
2024-01-06T01:23:47.537Z,4.50
2024-01-06T01:26:15.157Z,4.30
2024-01-06T01:28:43.113Z,5.50
2024-01-06T01:31:11.767Z,4.23
2024-01-06T01:33:39.432Z,4.60
2024-01-06T01:36:06.999Z,4.23
2024-01-06T01:38:36.593Z,4.63
2024-01-06T01:41:04.026Z,5.03
2024-01-06T01:43:31.403Z,4.73
2024-01-06T01:45:59.468Z,4.37
2024-01-06T01:48:27.258Z,5.23
2024-01-06T01:50:55.574Z,4.60
2024-01-06T01:53:25.146Z,5.20
2024-01-06T01:55:52.857Z,4.10
2024-01-06T01:58:20.504Z,4.53
2024-01-06T02:00:48.405Z,4.10
2024-01-06T02:03:16.421Z,4.80
2024-01-06T02:05:44.037Z,4.90
2024-01-06T02:08:11.476Z,4.27
2024-01-06T02:10:39.122Z,4.20
2024-01-06T02:13:10.489Z,4.30
2024-01-06T02:15:38.488Z,4.00
2024-01-06T02:18:06.520Z,4.07
2024-01-06T02:20:34.090Z,4.10
2024-01-06T02:23:01.942Z,4.13
2024-01-06T02:25:30.148Z,5.50
2024-01-06T02:27:57.970Z,4.43
2024-01-06T02:30:26.797Z,4.20
2024-01-06T02:32:54.704Z,4.13
2024-01-06T02:35:22.649Z,4.30
2024-01-06T02:37:50.089Z,4.83
2024-01-06T02:40:17.605Z,5.23
2024-01-06T02:42:45.131Z,4.30
2024-01-06T02:45:12.667Z,5.57
2024-01-06T02:47:40.283Z,4.10
2024-01-06T02:50:08.060Z,4.60
2024-01-06T02:52:35.563Z,4.20
2024-01-06T02:55:03.832Z,4.50
2024-01-06T02:57:32.653Z,4.90
2024-01-06T03:00:00.295Z,4.37
2024-01-06T03:02:28.767Z,4.77
2024-01-06T03:04:56.730Z,3.77
2024-01-06T03:07:24.427Z,4.23
2024-01-06T03:09:51.909Z,4.60
2024-01-06T03:12:19.321Z,4.40
2024-01-06T03:14:46.805Z,5.07
2024-01-06T03:17:14.381Z,5.00
2024-01-06T03:19:41.918Z,4.87
2024-01-06T03:22:09.418Z,4.00
2024-01-06T03:24:38.048Z,4.10
2024-01-06T03:27:05.653Z,4.50
2024-01-06T03:29:33.077Z,4.00
2024-01-06T03:32:00.424Z,4.20
2024-01-06T03:34:27.842Z,4.40
2024-01-06T03:36:55.755Z,3.53
2024-01-06T03:39:23.704Z,3.60
2024-01-06T03:41:51.129Z,3.87
2024-01-06T03:44:18.612Z,3.80
2024-01-06T03:46:46.104Z,4.30
2024-01-06T03:49:14.099Z,3.80
2024-01-06T03:51:41.767Z,4.50
2024-01-06T03:54:09.352Z,4.40
2024-01-06T03:56:36.902Z,4.90
2024-01-06T03:59:04.397Z,4.47
2024-01-06T04:01:35.804Z,4.60
2024-01-06T04:04:07.052Z,4.47
2024-01-06T04:06:34.602Z,4.40
2024-01-06T04:09:03.733Z,5.37
2024-01-06T04:11:31.260Z,5.20
2024-01-06T04:13:59.626Z,4.40
2024-01-06T04:16:28.605Z,4.33
2024-01-06T04:18:56.337Z,3.70
2024-01-06T04:21:24.024Z,4.00
2024-01-06T04:23:51.439Z,3.80
2024-01-06T04:26:18.750Z,4.47
2024-01-06T04:28:46.098Z,5.00
2024-01-06T04:31:13.655Z,5.63
2024-01-06T04:33:41.803Z,3.90
2024-01-06T04:36:10.283Z,6.93
2024-01-06T04:38:37.550Z,4.40
2024-01-06T04:41:04.926Z,4.10
2024-01-06T04:43:32.148Z,3.90
2024-01-06T04:45:59.580Z,4.57
2024-01-06T04:48:27.002Z,4.20
2024-01-06T04:50:54.382Z,4.30
2024-01-06T04:53:21.571Z,3.97
2024-01-06T04:55:48.720Z,3.73
2024-01-06T04:58:15.959Z,4.20
2024-01-06T05:00:43.302Z,3.77
2024-01-06T05:03:10.660Z,3.80
2024-01-06T05:05:38.036Z,5.57
2024-01-06T05:08:05.783Z,4.00
2024-01-06T05:10:32.960Z,4.30
2024-01-06T05:13:00.139Z,3.77
2024-01-06T05:15:27.733Z,4.07
2024-01-06T05:17:55.300Z,4.17
2024-01-06T05:20:22.586Z,4.23
2024-01-06T05:22:49.722Z,4.00
2024-01-06T05:25:16.947Z,4.60
2024-01-06T05:27:44.158Z,4.40
2024-01-06T05:30:11.641Z,4.57
2024-01-06T05:32:39.562Z,4.10
2024-01-06T05:35:07.137Z,4.33
2024-01-06T05:37:34.396Z,4.50
2024-01-06T05:40:04.156Z,4.43
2024-01-06T05:42:31.404Z,4.50
2024-01-06T05:44:58.633Z,5.43
2024-01-06T05:47:25.908Z,5.70
2024-01-06T05:49:53.067Z,5.23
2024-01-06T05:52:20.269Z,4.50
2024-01-06T05:54:47.851Z,4.20
2024-01-06T05:57:15.119Z,4.40
2024-01-06T05:59:42.372Z,4.23
2024-01-06T06:02:09.536Z,4.50
2024-01-06T06:04:37.069Z,4.87
2024-01-06T06:07:04.805Z,5.20
2024-01-06T06:09:32.362Z,4.00
2024-01-06T06:12:00.288Z,7.10
2024-01-06T06:14:30.061Z,5.13
2024-01-06T06:17:00.393Z,4.00
2024-01-06T06:19:27.597Z,6.07
2024-01-06T06:21:54.866Z,5.17
2024-01-06T06:24:22.097Z,5.67
2024-01-06T06:26:49.330Z,4.40
2024-01-06T06:29:16.519Z,5.40
2024-01-06T06:31:47.675Z,5.30
2024-01-06T06:34:15.121Z,5.00
2024-01-06T06:36:42.551Z,5.13
2024-01-06T06:39:11.548Z,5.20
2024-01-06T06:41:38.838Z,5.00
2024-01-06T06:44:06.406Z,4.93
2024-01-06T06:46:33.666Z,4.47
2024-01-06T06:49:00.893Z,5.13
2024-01-06T06:51:28.789Z,4.70
2024-01-06T06:53:56.214Z,4.60
2024-01-06T06:56:23.407Z,5.20
2024-01-06T06:58:50.581Z,4.57
2024-01-06T07:01:17.929Z,5.50
2024-01-06T07:03:45.243Z,5.17
2024-01-06T07:06:15.814Z,5.30
2024-01-06T07:08:44.516Z,5.20
2024-01-06T07:11:12.721Z,5.10
2024-01-06T07:13:40.464Z,5.27
2024-01-06T07:16:15.378Z,4.67
2024-01-06T07:18:46.292Z,4.43
2024-01-06T07:21:14.734Z,4.87
2024-01-06T07:23:42.034Z,5.20
2024-01-06T07:26:09.772Z,5.37
2024-01-06T07:28:36.971Z,5.00
2024-01-06T07:31:05.859Z,4.57
2024-01-06T07:33:33.644Z,4.50
2024-01-06T07:36:01.809Z,4.70
2024-01-06T07:38:29.262Z,4.70
2024-01-06T07:40:56.494Z,5.40
2024-01-06T07:43:23.686Z,5.20
2024-01-06T07:45:52.214Z,5.00
2024-01-06T07:48:19.586Z,4.70
2024-01-06T07:50:48.984Z,5.27
2024-01-06T07:53:16.203Z,4.90
2024-01-06T07:55:43.378Z,4.80
2024-01-06T07:58:10.597Z,6.17
2024-01-06T08:00:37.810Z,6.80
2024-01-06T08:03:07.065Z,4.60
2024-01-06T08:05:34.372Z,4.87
2024-01-06T08:08:01.576Z,4.93
2024-01-06T08:10:29.080Z,5.30
2024-01-06T08:12:56.377Z,5.27
2024-01-06T08:15:23.642Z,4.60
2024-01-06T08:17:51.092Z,6.13
2024-01-06T08:20:18.389Z,5.30
2024-01-06T08:22:45.565Z,7.00
2024-01-06T08:25:14.547Z,5.43
2024-01-06T08:27:41.738Z,5.50
2024-01-06T08:30:09.460Z,5.73
2024-01-06T08:32:36.836Z,5.80
2024-01-06T08:35:04.781Z,6.20
2024-01-06T08:37:32.119Z,6.43
2024-01-06T08:39:59.610Z,6.07
2024-01-06T08:42:27.135Z,6.23
2024-01-06T08:44:54.389Z,6.20
2024-01-06T08:47:21.591Z,7.30
2024-01-06T08:49:48.910Z,6.77
2024-01-06T08:52:16.289Z,6.77
2024-01-06T08:54:43.560Z,6.03
2024-01-06T08:57:10.771Z,6.20
2024-01-06T08:59:38.190Z,6.70
2024-01-06T09:02:05.397Z,6.00
2024-01-06T09:04:32.790Z,6.13
2024-01-06T09:07:00.105Z,6.13
2024-01-06T09:09:29.175Z,6.00
2024-01-06T09:11:57.395Z,6.20
2024-01-06T09:14:24.561Z,6.37
2024-01-06T09:16:51.740Z,6.80
2024-01-06T09:19:18.995Z,7.13
2024-01-06T09:21:46.303Z,6.23
2024-01-06T09:24:13.561Z,6.87
2024-01-06T09:26:40.798Z,6.80
2024-01-06T09:29:07.989Z,6.40
2024-01-06T09:31:35.407Z,6.50
2024-01-06T09:34:03.827Z,6.60
2024-01-06T09:36:32.478Z,6.50
2024-01-06T09:38:59.709Z,6.87
2024-01-06T09:41:26.941Z,7.20
2024-01-06T09:43:54.196Z,6.60
2024-01-06T09:46:21.319Z,7.30
2024-01-06T09:48:49.751Z,6.40
2024-01-06T09:51:17.068Z,7.00
2024-01-06T09:53:45.415Z,7.07
2024-01-06T09:56:13.136Z,6.80
2024-01-06T09:58:40.566Z,6.20
2024-01-06T10:01:09.819Z,7.33
2024-01-06T10:03:38.268Z,6.80
2024-01-06T10:06:05.913Z,7.30
2024-01-06T10:08:36.530Z,7.73
2024-01-06T10:11:03.805Z,7.00
2024-01-06T10:13:31.066Z,7.00
2024-01-06T10:15:58.321Z,7.23
2024-01-06T10:18:27.314Z,6.63
2024-01-06T10:20:55.014Z,9.10
2024-01-06T10:23:24.475Z,6.80
2024-01-06T10:25:57.757Z,7.33
2024-01-06T10:28:26.387Z,7.13
2024-01-06T10:30:54.590Z,6.90
2024-01-06T10:33:23.198Z,7.00
2024-01-06T10:35:56.751Z,6.83
2024-01-06T10:38:23.946Z,7.20
2024-01-06T10:40:58.698Z,6.77
2024-01-06T10:43:27.783Z,7.10
2024-01-06T10:45:56.958Z,6.43
2024-01-06T10:48:26.452Z,7.63
2024-01-06T10:50:54.275Z,7.63
2024-01-06T10:53:23.835Z,7.70
2024-01-06T10:55:55.416Z,7.97
2024-01-06T10:58:24.754Z,7.73
2024-01-06T11:00:52.265Z,6.77
2024-01-06T11:03:19.839Z,6.80
2024-01-06T11:05:47.288Z,7.40
2024-01-06T11:08:14.688Z,8.00
2024-01-06T11:10:42.062Z,7.00
2024-01-06T11:13:18.894Z,7.70
2024-01-06T11:15:50.348Z,7.03
2024-01-06T11:18:33.899Z,7.63
2024-01-06T11:21:18.625Z,7.83
2024-01-06T11:23:45.884Z,8.70
2024-01-06T11:26:13.058Z,7.63
2024-01-06T11:28:49.520Z,7.30
2024-01-06T11:31:17.184Z,9.20
2024-01-06T11:33:45.236Z,7.40
2024-01-06T11:36:13.321Z,8.70
2024-01-06T11:38:40.801Z,7.97
2024-01-06T11:41:08.973Z,8.30
2024-01-06T11:43:37.951Z,8.40
2024-01-06T11:46:08.010Z,8.17
2024-01-06T11:48:36.565Z,8.13
2024-01-06T11:51:04.996Z,8.00
2024-01-06T11:53:32.141Z,8.53
2024-01-06T11:56:01.471Z,8.67
2024-01-06T11:58:29.699Z,8.70
2024-01-06T12:00:59.150Z,10.50
2024-01-06T12:03:27.590Z,9.70
2024-01-06T12:06:03.718Z,10.60
2024-01-06T12:08:31.086Z,9.57
2024-01-06T12:11:04.669Z,9.40
2024-01-06T12:13:32.020Z,9.57
2024-01-06T12:15:59.333Z,9.60
2024-01-06T12:18:27.105Z,9.13
2024-01-06T12:20:58.293Z,8.97
2024-01-06T12:23:29.444Z,9.50
2024-01-06T12:26:02.468Z,9.63
2024-01-06T12:28:31.189Z,9.00
2024-01-06T12:31:05.648Z,9.50
2024-01-06T12:33:33.531Z,9.77
2024-01-06T12:36:07.771Z,9.67
2024-01-06T12:38:43.738Z,8.73
2024-01-06T12:41:12.040Z,8.90
2024-01-06T12:43:39.908Z,8.30
2024-01-06T12:46:07.292Z,8.00
2024-01-06T12:48:34.621Z,7.67
2024-01-06T12:51:03.059Z,8.80
2024-01-06T12:53:30.251Z,8.77
2024-01-06T12:55:57.425Z,7.17
2024-01-06T12:58:24.839Z,7.13
2024-01-06T13:00:52.087Z,7.57
2024-01-06T13:03:19.551Z,7.40
2024-01-06T13:05:46.853Z,7.03
2024-01-06T13:08:14.067Z,7.60
2024-01-06T13:10:41.217Z,7.33
2024-01-06T13:13:08.473Z,7.87
2024-01-06T13:15:35.925Z,8.00
2024-01-06T13:18:03.292Z,6.87
2024-01-06T13:20:30.506Z,6.87
2024-01-06T13:22:57.901Z,7.57
2024-01-06T13:25:25.091Z,7.47
2024-01-06T13:27:52.819Z,7.53
2024-01-06T13:30:21.412Z,6.40
2024-01-06T13:32:49.874Z,6.83
2024-01-06T13:35:17.157Z,7.33
2024-01-06T13:37:46.532Z,6.73
2024-01-06T13:40:13.901Z,7.13
2024-01-06T13:42:41.138Z,6.30
2024-01-06T13:45:09.621Z,7.37
2024-01-06T13:47:36.869Z,7.63
2024-01-06T13:50:04.198Z,7.33
2024-01-06T13:52:31.455Z,7.30
2024-01-06T13:54:58.688Z,7.60
2024-01-06T13:57:25.930Z,7.20
2024-01-06T13:59:53.274Z,7.13
2024-01-06T14:02:22.840Z,6.43
2024-01-06T14:04:50.069Z,8.90
2024-01-06T14:07:20.236Z,11.23
2024-01-06T14:09:48.102Z,11.13
2024-01-06T14:12:15.390Z,7.00
2024-01-06T14:14:42.714Z,7.70
2024-01-06T14:17:09.947Z,6.80
2024-01-06T14:19:37.179Z,7.50
2024-01-06T14:22:07.389Z,7.50
2024-01-06T14:24:34.604Z,8.13
2024-01-06T14:27:01.847Z,7.60
2024-01-06T14:29:29.015Z,7.13
2024-01-06T14:31:57.220Z,7.57
2024-01-06T14:34:25.933Z,8.27
2024-01-06T14:36:53.294Z,9.60
2024-01-06T14:39:23.566Z,8.30
2024-01-06T14:41:51.418Z,9.23
2024-01-06T14:44:20.921Z,7.83
2024-01-06T14:46:48.629Z,7.87
2024-01-06T14:49:15.909Z,8.37
2024-01-06T14:51:43.216Z,7.37
2024-01-06T14:54:12.632Z,7.40
2024-01-06T14:56:40.798Z,7.63
2024-01-06T14:59:08.458Z,7.60
2024-01-06T15:01:35.817Z,8.97
2024-01-06T15:04:03.256Z,6.90
2024-01-06T15:06:30.616Z,7.07
2024-01-06T15:08:57.921Z,6.93
2024-01-06T15:11:25.140Z,7.47
2024-01-06T15:13:52.773Z,7.10
2024-01-06T15:16:20.045Z,7.10
2024-01-06T15:18:48.302Z,6.50
2024-01-06T15:21:16.346Z,6.20
2024-01-06T15:23:43.611Z,7.00
2024-01-06T15:26:11.326Z,7.20
2024-01-06T15:28:38.513Z,7.73
2024-01-06T15:31:09.281Z,7.27
2024-01-06T15:33:39.156Z,6.87
2024-01-06T15:36:06.746Z,7.43
2024-01-06T15:38:34.229Z,6.40
2024-01-06T15:41:03.508Z,6.90
2024-01-06T15:43:32.839Z,6.67
2024-01-06T15:46:00.118Z,7.10
2024-01-06T15:48:29.214Z,6.57
2024-01-06T15:50:56.554Z,6.00
2024-01-06T15:53:23.951Z,5.50
2024-01-06T15:55:53.520Z,5.73
2024-01-06T15:58:21.610Z,5.40
2024-01-06T16:00:49.020Z,5.83
2024-01-06T16:03:16.610Z,6.00
2024-01-06T16:05:44.042Z,6.60
2024-01-06T16:08:11.250Z,6.20
2024-01-06T16:10:38.488Z,6.53
2024-01-06T16:13:07.299Z,7.57
2024-01-06T16:15:34.551Z,6.03
2024-01-06T16:18:01.851Z,6.80
2024-01-06T16:20:30.518Z,6.30
2024-01-06T16:22:57.871Z,6.63
2024-01-06T16:25:26.516Z,6.30
2024-01-06T16:27:53.938Z,7.27
2024-01-06T16:30:21.859Z,6.87
2024-01-06T16:32:50.307Z,5.63
2024-01-06T16:35:17.583Z,7.23
2024-01-06T16:37:44.792Z,6.77
2024-01-06T16:40:12.330Z,6.93
2024-01-06T16:42:39.800Z,6.53
2024-01-06T16:45:07.227Z,8.20
2024-01-06T16:47:34.568Z,7.70
2024-01-06T16:50:01.873Z,7.50
2024-01-06T16:52:29.140Z,7.80
2024-01-06T16:54:56.402Z,6.77
2024-01-06T16:57:23.633Z,7.97
2024-01-06T16:59:50.981Z,6.87
2024-01-06T17:02:18.280Z,8.77
2024-01-06T17:04:45.557Z,7.30
2024-01-06T17:07:12.912Z,7.80
2024-01-06T17:09:40.184Z,8.00
2024-01-06T17:12:07.629Z,9.27
2024-01-06T17:14:35.238Z,7.07
2024-01-06T17:17:02.452Z,6.47
2024-01-06T17:19:29.994Z,7.73
2024-01-06T17:21:57.274Z,7.90
2024-01-06T17:24:24.557Z,7.20
2024-01-06T17:26:51.955Z,6.60
2024-01-06T17:29:19.248Z,7.33
2024-01-06T17:31:46.729Z,8.70
2024-01-06T17:34:14.282Z,6.83
2024-01-06T17:36:41.754Z,7.37
2024-01-06T17:39:09.173Z,7.60
2024-01-06T17:41:45.768Z,7.23
2024-01-06T17:44:21.331Z,7.50
2024-01-06T17:46:48.502Z,7.57
2024-01-06T17:49:16.014Z,7.90
2024-01-06T17:51:43.402Z,7.70
2024-01-06T17:54:11.506Z,7.90
2024-01-06T17:56:38.865Z,6.83
2024-01-06T17:59:06.689Z,7.27
2024-01-06T18:01:37.086Z,7.47
2024-01-06T18:04:04.456Z,7.40
2024-01-06T18:06:31.762Z,9.53
2024-01-06T18:08:59.317Z,8.70
2024-01-06T18:11:26.568Z,8.27
2024-01-06T18:13:53.758Z,8.10
2024-01-06T18:16:21.065Z,6.97
2024-01-06T18:18:48.397Z,7.20
2024-01-06T18:21:15.628Z,6.90
2024-01-06T18:23:42.824Z,7.57
2024-01-06T18:26:10.532Z,7.10
2024-01-06T18:28:38.391Z,9.07
2024-01-06T18:31:05.746Z,7.80
2024-01-06T18:33:33.271Z,6.97
2024-01-06T18:36:01.396Z,8.63
2024-01-06T18:38:28.570Z,9.07
2024-01-06T18:40:59.449Z,7.90
2024-01-06T18:43:26.614Z,8.33
2024-01-06T18:45:55.650Z,7.47
2024-01-06T18:48:23.160Z,12.17
2024-01-06T18:50:50.443Z,10.60
2024-01-06T18:53:17.705Z,11.93
2024-01-06T18:55:44.857Z,12.77
2024-01-06T18:58:12.037Z,10.50
2024-01-06T19:00:40.065Z,11.73
2024-01-06T19:03:07.333Z,11.03
2024-01-06T19:05:34.785Z,9.37
2024-01-06T19:08:02.302Z,10.03
2024-01-06T19:10:29.566Z,9.73
2024-01-06T19:12:56.830Z,10.40
2024-01-06T19:15:25.368Z,11.37
2024-01-06T19:17:53.498Z,9.90
2024-01-06T19:20:22.887Z,12.83
2024-01-06T19:23:02.023Z,9.80
2024-01-06T19:25:34.299Z,10.23
2024-01-06T19:28:01.858Z,9.20
2024-01-06T19:30:29.275Z,9.37
2024-01-06T19:32:56.577Z,9.33
2024-01-06T19:35:23.815Z,8.57
2024-01-06T19:37:51.001Z,26.60
2024-01-06T19:40:19.484Z,9.30
2024-01-06T19:42:49.794Z,11.30
2024-01-06T19:45:17.829Z,10.37
2024-01-06T19:47:45.377Z,11.23
2024-01-06T19:50:13.102Z,9.47
2024-01-06T19:52:40.315Z,9.93
2024-01-06T19:55:10.883Z,10.43
2024-01-06T19:57:38.503Z,11.63
2024-01-06T20:00:06.449Z,9.13
2024-01-06T20:02:37.095Z,11.60
2024-01-06T20:05:06.139Z,10.10
2024-01-06T20:07:33.358Z,10.20
2024-01-06T20:10:01.960Z,10.47
2024-01-06T20:12:29.793Z,9.00
2024-01-06T20:14:58.479Z,9.53
2024-01-06T20:17:28.348Z,10.33
2024-01-06T20:19:55.701Z,9.90
2024-01-06T20:22:24.108Z,10.03
2024-01-06T20:24:51.497Z,12.80
2024-01-06T20:27:18.793Z,9.83
2024-01-06T20:29:45.986Z,10.90
2024-01-06T20:32:13.367Z,11.40
2024-01-06T20:34:41.156Z,10.77
2024-01-06T20:37:08.443Z,10.30
2024-01-06T20:39:37.748Z,9.20
2024-01-06T20:42:05.973Z,10.20
2024-01-06T20:44:33.192Z,9.17
2024-01-06T20:47:01.249Z,10.43
2024-01-06T20:49:30.126Z,9.63
2024-01-06T20:51:58.025Z,10.67
2024-01-06T20:54:25.759Z,9.90
2024-01-06T20:56:56.074Z,15.40
2024-01-06T20:59:23.327Z,10.27
2024-01-06T21:01:51.655Z,9.87
2024-01-06T21:04:19.863Z,10.13
2024-01-06T21:06:47.570Z,8.90
2024-01-06T21:09:14.818Z,9.97
2024-01-06T21:11:44.188Z,9.50
2024-01-06T21:14:11.361Z,10.80
2024-01-06T21:16:42.142Z,9.40
2024-01-06T21:19:09.527Z,11.27
2024-01-06T21:21:36.845Z,8.80
2024-01-06T21:24:04.208Z,9.43
2024-01-06T21:26:33.561Z,10.23
2024-01-06T21:29:00.780Z,9.43
2024-01-06T21:31:28.751Z,9.10
2024-01-06T21:33:56.380Z,9.33
2024-01-06T21:36:24.033Z,8.33
2024-01-06T21:38:51.296Z,9.10
2024-01-06T21:41:18.580Z,8.30
2024-01-06T21:43:45.830Z,10.13
2024-01-06T21:46:13.160Z,10.87
2024-01-06T21:48:40.650Z,8.40
2024-01-06T21:51:07.977Z,9.83
2024-01-06T21:53:35.270Z,8.80
2024-01-06T21:56:04.186Z,7.70
2024-01-06T21:58:31.398Z,8.43
2024-01-06T22:00:59.122Z,7.40
2024-01-06T22:03:26.533Z,7.03
2024-01-06T22:05:53.873Z,6.57
2024-01-06T22:08:22.633Z,6.37
2024-01-06T22:10:49.829Z,6.20
2024-01-06T22:13:17.035Z,5.20
2024-01-06T22:15:44.459Z,3.50
2024-01-06T22:18:11.788Z,4.00
2024-01-06T22:20:39.010Z,3.70
2024-01-06T22:23:06.713Z,3.27
2024-01-06T22:25:33.983Z,3.80
2024-01-06T22:28:02.262Z,3.43
2024-01-06T22:30:29.646Z,3.30
2024-01-06T22:32:56.970Z,3.60
2024-01-06T22:35:24.613Z,3.63
2024-01-06T22:37:51.854Z,3.50
2024-01-06T22:40:21.470Z,3.50
2024-01-06T22:42:48.947Z,4.07
2024-01-06T22:45:16.183Z,3.60
2024-01-06T22:47:43.399Z,4.50
2024-01-06T22:50:10.807Z,5.03
2024-01-06T22:52:38.814Z,4.90
2024-01-06T22:55:06.787Z,4.90
2024-01-06T22:57:34.134Z,4.93
2024-01-06T23:00:01.374Z,5.53
2024-01-06T23:02:28.602Z,5.33
2024-01-06T23:04:59.079Z,5.47
2024-01-06T23:07:26.454Z,5.77
2024-01-06T23:09:53.747Z,5.63
2024-01-06T23:12:21.029Z,5.83
2024-01-06T23:14:52.811Z,5.63
2024-01-06T23:17:19.999Z,5.53
2024-01-06T23:19:47.270Z,6.37
2024-01-06T23:22:14.643Z,5.80
2024-01-06T23:24:42.013Z,6.10
2024-01-06T23:27:09.314Z,5.60
2024-01-06T23:29:39.225Z,6.53
2024-01-06T23:32:07.358Z,5.93
2024-01-06T23:34:38.612Z,5.43
2024-01-06T23:37:10.747Z,6.77
2024-01-06T23:39:38.002Z,6.70
2024-01-06T23:42:06.138Z,6.80
2024-01-06T23:44:33.747Z,7.17
2024-01-06T23:47:00.958Z,5.67
2024-01-06T23:49:28.517Z,7.00
2024-01-06T23:51:56.781Z,5.67
2024-01-06T23:54:24.069Z,5.70
2024-01-06T23:56:51.267Z,6.77
2024-01-06T23:59:19.768Z,6.13
